createdAt,value
2023-05-12T00:00:28.457Z,0.10
2023-05-12T00:01:46.678Z,0.10
2023-05-12T00:02:48.978Z,0.20
2023-05-12T00:03:53.999Z,0.20
2023-05-12T00:04:56.248Z,0.10
2023-05-12T00:06:00.600Z,0.00
2023-05-12T00:07:04.141Z,0.20
2023-05-12T00:08:06.203Z,0.10
2023-05-12T00:09:08.331Z,0.10
2023-05-12T00:10:10.596Z,0.13
2023-05-12T00:11:12.951Z,0.05
2023-05-12T00:12:14.871Z,0.10
2023-05-12T00:13:17.220Z,0.10
2023-05-12T00:14:20.159Z,0.20
2023-05-12T00:15:22.677Z,0.10
2023-05-12T00:16:24.669Z,0.10
2023-05-12T00:17:28.131Z,0.00
2023-05-12T00:18:30.149Z,0.10
2023-05-12T00:19:33.847Z,0.20
2023-05-12T00:20:35.968Z,0.05
2023-05-12T00:21:37.905Z,0.10
2023-05-12T00:22:40.354Z,0.30
2023-05-12T00:23:42.869Z,0.10
2023-05-12T00:24:45.213Z,0.30
2023-05-12T00:25:47.133Z,0.00
2023-05-12T00:26:49.066Z,0.10
2023-05-12T00:27:51.293Z,0.10
2023-05-12T00:28:53.236Z,0.30
2023-05-12T00:29:55.158Z,0.38
2023-05-12T00:30:57.453Z,0.13
2023-05-12T00:31:59.917Z,0.20
2023-05-12T00:33:01.878Z,0.15
2023-05-12T00:34:04.029Z,0.17
2023-05-12T00:35:06.180Z,0.20
2023-05-12T00:36:08.691Z,0.13
2023-05-12T00:37:10.645Z,0.20
2023-05-12T00:38:13.294Z,0.20
2023-05-12T00:39:15.308Z,0.08
2023-05-12T00:40:17.765Z,0.00
2023-05-12T00:41:20.505Z,0.10
2023-05-12T00:42:22.419Z,0.22
2023-05-12T00:43:24.288Z,0.10
2023-05-12T00:44:26.954Z,0.20
2023-05-12T00:45:32.177Z,0.10
2023-05-12T00:46:34.200Z,0.10
2023-05-12T00:47:36.311Z,0.10
2023-05-12T00:48:38.677Z,0.20
2023-05-12T00:49:42.926Z,0.15
2023-05-12T00:50:44.925Z,0.20
2023-05-12T00:51:46.842Z,0.20
2023-05-12T00:52:49.908Z,0.10
2023-05-12T00:53:52.297Z,0.17
2023-05-12T00:54:54.796Z,0.20
2023-05-12T00:55:57.853Z,0.15
2023-05-12T00:57:00.186Z,0.20
2023-05-12T00:58:02.645Z,0.20
2023-05-12T00:59:04.475Z,0.20
2023-05-12T01:00:07.671Z,0.00
2023-05-12T01:01:10.341Z,0.30
2023-05-12T01:02:12.394Z,0.10
2023-05-12T01:03:14.561Z,0.10
2023-05-12T01:04:16.908Z,0.10
2023-05-12T01:05:19.360Z,0.20
2023-05-12T01:06:38.593Z,0.10
2023-05-12T01:07:40.618Z,0.10
2023-05-12T01:08:42.832Z,0.10
2023-05-12T01:09:45.089Z,0.17
2023-05-12T01:10:47.665Z,0.10
2023-05-12T01:11:49.632Z,0.20
2023-05-12T01:12:51.702Z,0.10
2023-05-12T01:13:54.058Z,0.20
2023-05-12T01:14:57.374Z,0.10
2023-05-12T01:16:01.047Z,0.10
2023-05-12T01:17:08.966Z,0.20
2023-05-12T01:18:12.545Z,0.10
2023-05-12T01:19:38.900Z,0.10
2023-05-12T01:20:43.225Z,0.15
2023-05-12T01:21:45.183Z,0.13
2023-05-12T01:22:49.468Z,0.10
2023-05-12T01:23:59.656Z,0.20
2023-05-12T01:25:07.918Z,0.22
2023-05-12T01:26:10.673Z,0.30
2023-05-12T01:27:15.025Z,0.00
2023-05-12T01:28:18.084Z,0.20
2023-05-12T01:29:21.351Z,0.10
2023-05-12T01:30:24.886Z,0.10
2023-05-12T01:31:28.069Z,0.03
2023-05-12T01:32:30.766Z,0.17
2023-05-12T01:33:33.472Z,0.10
2023-05-12T01:34:36.245Z,0.10
2023-05-12T01:35:38.547Z,0.20
2023-05-12T01:36:40.483Z,0.20
2023-05-12T01:37:42.413Z,0.05
2023-05-12T01:38:44.574Z,0.10
2023-05-12T01:39:46.886Z,0.20
2023-05-12T01:40:48.981Z,0.17
2023-05-12T01:41:50.900Z,0.20
2023-05-12T01:42:52.908Z,0.20
2023-05-12T01:43:55.222Z,0.10
2023-05-12T01:44:57.200Z,0.30
2023-05-12T01:45:59.302Z,0.20
2023-05-12T01:47:02.143Z,0.30
2023-05-12T01:48:04.593Z,0.10
2023-05-12T01:49:06.619Z,0.20
2023-05-12T01:50:09.057Z,0.03
2023-05-12T01:51:10.998Z,0.20
2023-05-12T01:52:13.411Z,0.52
2023-05-12T01:53:15.297Z,0.20
2023-05-12T01:54:17.184Z,0.15
2023-05-12T01:55:19.225Z,0.20
2023-05-12T01:56:22.140Z,0.10
2023-05-12T01:57:24.178Z,0.20
2023-05-12T01:58:26.036Z,0.20
2023-05-12T01:59:27.971Z,0.40
2023-05-12T02:00:30.173Z,0.10
2023-05-12T02:01:32.565Z,0.10
2023-05-12T02:02:34.882Z,0.30
2023-05-12T02:03:38.240Z,0.20
2023-05-12T02:04:40.669Z,0.30
2023-05-12T02:05:42.562Z,0.10
2023-05-12T02:06:44.723Z,0.20
2023-05-12T02:07:46.825Z,0.20
2023-05-12T02:08:49.026Z,0.20
2023-05-12T02:09:51.328Z,0.20
2023-05-12T02:11:07.526Z,0.13
2023-05-12T02:12:09.617Z,0.10
2023-05-12T02:13:11.817Z,0.28
2023-05-12T02:14:13.760Z,0.20
2023-05-12T02:15:15.717Z,0.22
2023-05-12T02:16:17.759Z,0.20
2023-05-12T02:17:20.017Z,0.28
2023-05-12T02:18:22.045Z,0.10
2023-05-12T02:19:24.023Z,0.20
2023-05-12T02:20:25.994Z,0.22
2023-05-12T02:21:28.351Z,0.28
2023-05-12T02:22:30.192Z,0.30
2023-05-12T02:23:32.126Z,0.20
2023-05-12T02:24:34.070Z,0.20
2023-05-12T02:25:36.345Z,0.10
2023-05-12T02:26:38.252Z,0.20
2023-05-12T02:27:40.175Z,0.30
2023-05-12T02:28:42.052Z,0.20
2023-05-12T02:29:44.361Z,0.20
2023-05-12T02:30:48.845Z,0.20
2023-05-12T02:31:50.769Z,0.30
2023-05-12T02:32:52.818Z,0.20
2023-05-12T02:33:55.249Z,0.20
2023-05-12T02:34:57.207Z,0.28
2023-05-12T02:36:02.051Z,0.10
2023-05-12T02:37:04.279Z,0.30
2023-05-12T02:38:06.475Z,0.10
2023-05-12T02:39:08.444Z,0.22
2023-05-12T02:40:10.736Z,0.15
2023-05-12T02:41:12.760Z,0.10
2023-05-12T02:42:15.003Z,0.10
2023-05-12T02:43:16.927Z,0.25
2023-05-12T02:44:20.913Z,0.20
2023-05-12T02:45:22.862Z,0.20
2023-05-12T02:46:25.131Z,0.40
2023-05-12T02:47:27.296Z,0.28
2023-05-12T02:48:29.274Z,0.30
2023-05-12T02:49:31.251Z,0.40
2023-05-12T02:50:33.538Z,0.30
2023-05-12T02:51:35.529Z,0.30
2023-05-12T02:52:37.469Z,0.30
2023-05-12T02:53:39.341Z,0.30
2023-05-12T02:54:41.651Z,0.30
2023-05-12T02:55:43.645Z,0.30
2023-05-12T02:56:45.632Z,0.10
2023-05-12T02:57:47.601Z,0.20
2023-05-12T02:58:49.865Z,0.10
2023-05-12T02:59:51.747Z,0.43
2023-05-12T03:01:03.165Z,0.30
2023-05-12T03:02:11.837Z,0.20
2023-05-12T03:03:14.165Z,0.38
2023-05-12T03:04:16.901Z,0.28
2023-05-12T03:05:19.094Z,0.28
2023-05-12T03:06:20.997Z,0.20
2023-05-12T03:07:23.370Z,0.30
2023-05-12T03:08:25.405Z,0.32
2023-05-12T03:09:27.297Z,0.40
2023-05-12T03:10:29.317Z,0.20
2023-05-12T03:11:31.557Z,0.13
2023-05-12T03:12:33.420Z,0.22
2023-05-12T03:13:35.409Z,0.20
2023-05-12T03:14:37.354Z,0.20
2023-05-12T03:15:39.596Z,0.30
2023-05-12T03:16:41.522Z,0.20
2023-05-12T03:17:43.638Z,0.40
2023-05-12T03:18:45.768Z,0.13
2023-05-12T03:19:48.065Z,0.25
2023-05-12T03:20:50.097Z,0.20
2023-05-12T03:21:52.050Z,0.30
2023-05-12T03:22:54.145Z,0.40
2023-05-12T03:23:57.564Z,0.30
2023-05-12T03:24:59.505Z,0.40
2023-05-12T03:26:01.821Z,0.40
2023-05-12T03:27:03.882Z,0.20
2023-05-12T03:28:06.214Z,0.55
2023-05-12T03:29:08.957Z,0.20
2023-05-12T03:30:11.745Z,0.22
2023-05-12T03:31:13.801Z,0.40
2023-05-12T03:32:16.931Z,0.30
2023-05-12T03:33:18.807Z,0.38
2023-05-12T03:34:20.757Z,0.35
2023-05-12T03:35:22.763Z,0.30
2023-05-12T03:36:25.202Z,0.22
2023-05-12T03:37:27.275Z,0.10
2023-05-12T03:38:29.305Z,0.20
2023-05-12T03:39:31.413Z,0.32
2023-05-12T03:40:33.866Z,0.30
2023-05-12T03:41:36.512Z,0.30
2023-05-12T03:42:38.417Z,0.20
2023-05-12T03:43:40.709Z,0.10
2023-05-12T03:44:42.925Z,0.30
2023-05-12T03:45:44.892Z,0.30
2023-05-12T03:46:47.017Z,0.22
2023-05-12T03:47:49.070Z,0.30
2023-05-12T03:48:51.417Z,0.25
2023-05-12T03:49:53.325Z,0.28
2023-05-12T03:50:55.257Z,0.30
2023-05-12T03:51:57.353Z,0.10
2023-05-12T03:52:59.633Z,0.20
2023-05-12T03:54:01.499Z,0.30
2023-05-12T03:55:03.516Z,0.30
2023-05-12T03:56:06.013Z,0.32
2023-05-12T03:57:08.361Z,0.30
2023-05-12T03:58:10.206Z,0.32
2023-05-12T03:59:12.286Z,0.30
2023-05-12T04:00:14.670Z,0.20
2023-05-12T04:02:19.023Z,0.20
2023-05-12T04:03:21.748Z,0.30
2023-05-12T04:04:23.740Z,0.40
2023-05-12T04:05:26.154Z,0.40
2023-05-12T04:06:28.113Z,0.20
2023-05-12T04:07:30.082Z,0.30
2023-05-12T04:08:32.130Z,0.30
2023-05-12T04:09:34.444Z,0.20
2023-05-12T04:10:42.700Z,0.20
2023-05-12T04:11:44.678Z,0.30
2023-05-12T04:12:46.641Z,0.20
2023-05-12T04:13:49.328Z,0.30
2023-05-12T04:14:51.287Z,0.20
2023-05-12T04:15:55.954Z,0.22
2023-05-12T04:16:58.691Z,0.22
2023-05-12T04:18:02.498Z,0.15
2023-05-12T04:19:04.509Z,0.30
2023-05-12T04:20:07.972Z,0.75
2023-05-12T04:21:09.928Z,0.30
2023-05-12T04:22:12.237Z,0.17
2023-05-12T04:23:15.453Z,1.00
2023-05-12T04:24:17.477Z,0.40
2023-05-12T04:25:19.438Z,0.30
2023-05-12T04:26:22.248Z,0.32
2023-05-12T04:27:24.241Z,0.20
2023-05-12T04:28:26.282Z,0.10
2023-05-12T04:29:28.788Z,0.22
2023-05-12T04:30:31.110Z,0.30
2023-05-12T04:31:33.020Z,0.40
2023-05-12T04:32:35.214Z,0.30
2023-05-12T04:33:37.203Z,0.35
2023-05-12T04:34:39.426Z,0.40
2023-05-12T04:35:41.406Z,0.40
2023-05-12T04:36:43.298Z,0.30
2023-05-12T04:37:45.220Z,0.13
2023-05-12T04:38:47.591Z,0.50
2023-05-12T04:39:49.564Z,0.10
2023-05-12T04:40:51.645Z,0.60
2023-05-12T04:41:53.568Z,0.30
2023-05-12T04:42:56.052Z,0.40
2023-05-12T04:44:00.844Z,0.22
2023-05-12T04:45:02.961Z,0.20
2023-05-12T04:46:05.239Z,0.25
2023-05-12T04:47:07.556Z,0.17
2023-05-12T04:48:09.490Z,0.30
2023-05-12T04:49:11.612Z,0.40
2023-05-12T04:50:14.107Z,0.30
2023-05-12T04:51:16.386Z,0.20
2023-05-12T04:52:18.342Z,0.20
2023-05-12T04:53:20.293Z,0.10
2023-05-12T04:54:22.251Z,0.20
2023-05-12T04:55:24.675Z,0.57
2023-05-12T04:56:26.650Z,0.20
2023-05-12T04:57:28.596Z,0.13
2023-05-12T04:58:30.538Z,0.30
2023-05-12T04:59:32.860Z,0.22
2023-05-12T05:00:34.685Z,0.50
2023-05-12T05:01:36.854Z,0.30
2023-05-12T05:02:39.473Z,0.20
2023-05-12T05:03:41.997Z,0.50
2023-05-12T05:04:43.936Z,0.28
2023-05-12T05:05:46.144Z,0.60
2023-05-12T05:06:48.049Z,0.30
2023-05-12T05:07:50.327Z,0.30
2023-05-12T05:08:53.375Z,0.22
2023-05-12T05:09:55.390Z,0.32
2023-05-12T05:10:57.983Z,0.73
2023-05-12T05:13:02.199Z,0.40
2023-05-12T05:14:04.179Z,0.30
2023-05-12T05:15:06.769Z,0.40
2023-05-12T05:17:12.454Z,0.50
2023-05-12T05:18:14.530Z,0.38
2023-05-12T05:19:24.844Z,0.47
2023-05-12T05:20:34.701Z,0.40
2023-05-12T05:21:37.177Z,0.63
2023-05-12T05:22:39.711Z,0.40
2023-05-12T05:23:42.055Z,0.63
2023-05-12T05:24:44.441Z,0.85
2023-05-12T05:25:46.473Z,0.30
2023-05-12T05:26:48.898Z,0.35
2023-05-12T05:27:50.828Z,0.50
2023-05-12T05:28:55.391Z,0.52
2023-05-12T05:29:57.740Z,0.75
2023-05-12T05:30:59.733Z,0.70
2023-05-12T05:32:01.763Z,0.30
2023-05-12T05:33:04.199Z,0.40
2023-05-12T05:34:06.375Z,0.50
2023-05-12T05:35:08.599Z,0.63
2023-05-12T05:36:11.127Z,0.38
2023-05-12T05:38:15.387Z,0.52
2023-05-12T05:39:17.413Z,0.80
2023-05-12T05:40:19.616Z,0.60
2023-05-12T05:41:23.229Z,0.68
2023-05-12T05:42:25.148Z,0.75
2023-05-12T05:43:27.019Z,0.63
2023-05-12T05:44:29.162Z,0.50
2023-05-12T05:45:31.512Z,0.57
2023-05-12T05:46:33.503Z,0.50
2023-05-12T05:47:37.741Z,0.50
2023-05-12T05:48:39.803Z,0.57
2023-05-12T05:49:42.423Z,0.60
2023-05-12T05:50:44.528Z,1.00
2023-05-12T05:51:46.515Z,0.73
2023-05-12T05:52:48.481Z,0.60
2023-05-12T05:53:50.727Z,0.57
2023-05-12T05:54:52.655Z,0.70
2023-05-12T05:55:54.682Z,0.80
2023-05-12T05:56:56.528Z,0.65
2023-05-12T05:57:58.831Z,0.65
2023-05-12T05:59:03.394Z,0.70
2023-05-12T06:00:08.140Z,0.55
2023-05-12T06:01:10.370Z,0.60
2023-05-12T06:02:12.745Z,0.65
2023-05-12T06:03:14.855Z,0.70
2023-05-12T06:04:16.997Z,0.60
2023-05-12T06:05:19.300Z,0.70
2023-05-12T06:07:23.772Z,0.70
2023-05-12T06:08:25.686Z,0.70
2023-05-12T06:09:27.663Z,1.02
2023-05-12T06:10:29.930Z,0.70
2023-05-12T06:11:31.819Z,0.55
2023-05-12T06:12:33.808Z,0.50
2023-05-12T06:13:36.537Z,0.70
2023-05-12T06:14:38.756Z,0.75
2023-05-12T06:15:40.821Z,0.68
2023-05-12T06:16:42.765Z,0.85
2023-05-12T06:17:45.227Z,0.57
2023-05-12T06:18:47.533Z,0.80
2023-05-12T06:19:50.745Z,0.90
2023-05-12T06:20:52.750Z,0.73
2023-05-12T06:21:54.739Z,0.60
2023-05-12T06:22:57.225Z,0.50
2023-05-12T06:23:59.429Z,0.32
2023-05-12T06:25:01.794Z,0.50
2023-05-12T06:26:04.276Z,0.65
2023-05-12T06:27:06.912Z,0.50
2023-05-12T06:28:09.104Z,0.40
2023-05-12T06:29:11.178Z,0.40
2023-05-12T06:30:15.658Z,0.60
2023-05-12T06:31:18.360Z,0.63
2023-05-12T06:32:20.539Z,0.60
2023-05-12T06:33:22.466Z,0.40
2023-05-12T06:34:24.471Z,0.55
2023-05-12T06:35:26.766Z,0.93
2023-05-12T06:36:29.165Z,0.35
2023-05-12T06:37:31.159Z,0.40
2023-05-12T06:38:33.062Z,0.40
2023-05-12T06:39:36.013Z,0.20
2023-05-12T06:40:38.143Z,0.40
2023-05-12T06:41:40.419Z,0.50
2023-05-12T06:42:42.242Z,0.60
2023-05-12T06:43:44.475Z,0.40
2023-05-12T06:44:46.467Z,0.60
2023-05-12T06:45:48.355Z,0.40
2023-05-12T06:46:50.256Z,0.40
2023-05-12T06:47:52.679Z,0.77
2023-05-12T06:48:55.908Z,0.50
2023-05-12T06:49:57.989Z,0.60
2023-05-12T06:50:59.937Z,0.47
2023-05-12T06:52:02.097Z,0.65
2023-05-12T06:53:04.073Z,0.43
2023-05-12T06:54:06.095Z,0.47
2023-05-12T06:55:08.519Z,0.60
2023-05-12T06:56:11.657Z,0.40
2023-05-12T06:57:13.501Z,0.65
2023-05-12T06:58:15.453Z,0.60
2023-05-12T06:59:18.829Z,0.60
2023-05-12T07:00:24.067Z,0.60
2023-05-12T07:01:25.983Z,0.70
2023-05-12T07:02:28.059Z,0.60
2023-05-12T07:03:32.898Z,0.43
2023-05-12T07:04:36.449Z,0.60
2023-05-12T07:05:38.422Z,0.50
2023-05-12T07:06:40.341Z,0.32
2023-05-12T07:07:42.324Z,0.50
2023-05-12T07:08:44.578Z,0.43
2023-05-12T07:09:46.540Z,0.43
2023-05-12T07:10:48.408Z,0.30
2023-05-12T07:11:50.409Z,0.32
2023-05-12T07:12:53.111Z,0.50
2023-05-12T07:13:54.994Z,0.50
2023-05-12T07:14:56.947Z,0.55
2023-05-12T07:15:58.946Z,0.70
2023-05-12T07:17:01.258Z,0.60
2023-05-12T07:18:03.323Z,0.40
2023-05-12T07:19:06.507Z,0.20
2023-05-12T07:20:10.101Z,0.38
2023-05-12T07:21:13.408Z,0.70
2023-05-12T07:22:15.424Z,0.60
2023-05-12T07:23:17.447Z,0.43
2023-05-12T07:24:19.442Z,0.52
2023-05-12T07:25:22.293Z,0.60
2023-05-12T07:26:24.499Z,0.65
2023-05-12T07:27:26.563Z,0.40
2023-05-12T07:28:38.434Z,0.40
2023-05-12T07:29:40.754Z,0.60
2023-05-12T07:30:42.719Z,0.50
2023-05-12T07:31:45.099Z,0.35
2023-05-12T07:32:47.208Z,0.50
2023-05-12T07:33:49.524Z,0.55
2023-05-12T07:34:51.443Z,0.30
2023-05-12T07:35:53.388Z,0.43
2023-05-12T07:36:55.315Z,0.30
2023-05-12T07:37:57.511Z,0.35
2023-05-12T07:38:59.384Z,0.30
2023-05-12T07:40:01.328Z,0.30
2023-05-12T07:41:03.849Z,0.32
2023-05-12T07:42:06.254Z,0.30
2023-05-12T07:43:08.201Z,0.20
2023-05-12T07:44:10.619Z,0.38
2023-05-12T07:45:12.590Z,0.45
2023-05-12T07:46:14.941Z,0.30
2023-05-12T07:47:17.134Z,0.32
2023-05-12T07:48:19.050Z,0.20
2023-05-12T07:49:22.020Z,0.20
2023-05-12T07:50:24.338Z,0.43
2023-05-12T07:51:26.324Z,0.28
2023-05-12T07:52:28.323Z,0.20
2023-05-12T07:53:30.296Z,0.20
2023-05-12T07:54:32.694Z,0.30
2023-05-12T07:55:34.979Z,0.30
2023-05-12T07:56:37.046Z,0.30
2023-05-12T07:57:38.943Z,0.30
2023-05-12T07:58:41.180Z,0.17
2023-05-12T07:59:43.225Z,0.20
2023-05-12T08:00:45.190Z,0.30
2023-05-12T08:01:47.221Z,0.32
2023-05-12T08:02:49.685Z,0.63
2023-05-12T08:03:52.040Z,0.10
2023-05-12T08:04:53.994Z,0.45
2023-05-12T08:05:55.834Z,0.30
2023-05-12T08:06:58.125Z,0.30
2023-05-12T08:08:00.063Z,0.20
2023-05-12T08:09:02.140Z,0.22
2023-05-12T08:10:05.401Z,0.32
2023-05-12T08:11:07.633Z,0.50
2023-05-12T08:12:09.506Z,0.32
2023-05-12T08:13:11.718Z,0.20
2023-05-12T08:14:13.618Z,0.50
2023-05-12T08:15:15.957Z,0.40
2023-05-12T08:16:18.184Z,0.30
2023-05-12T08:17:20.148Z,0.30
2023-05-12T08:18:22.148Z,0.30
2023-05-12T08:19:24.471Z,0.40
2023-05-12T08:20:26.978Z,0.28
2023-05-12T08:21:29.038Z,0.30
2023-05-12T08:22:31.515Z,0.40
2023-05-12T08:23:33.821Z,0.30
2023-05-12T08:24:35.730Z,0.30
2023-05-12T08:25:37.860Z,0.43
2023-05-12T08:26:39.875Z,1.40
2023-05-12T08:27:42.294Z,0.40
2023-05-12T08:28:44.206Z,0.32
2023-05-12T08:29:46.165Z,0.60
2023-05-12T08:30:48.174Z,0.47
2023-05-12T08:31:50.595Z,0.40
2023-05-12T08:32:52.718Z,0.40
2023-05-12T08:35:01.814Z,0.50
2023-05-12T08:36:04.429Z,0.30
2023-05-12T08:37:06.610Z,0.40
2023-05-12T08:38:08.545Z,0.40
2023-05-12T08:39:10.559Z,0.40
2023-05-12T08:40:21.192Z,0.40
2023-05-12T08:41:42.594Z,0.47
2023-05-12T08:42:56.010Z,0.50
2023-05-12T08:43:59.539Z,0.70
2023-05-12T08:45:01.607Z,0.57
2023-05-12T08:46:05.085Z,0.60
2023-05-12T08:47:07.268Z,0.50
2023-05-12T08:48:11.069Z,0.80
2023-05-12T08:49:17.602Z,0.80
2023-05-12T08:50:22.514Z,0.88
2023-05-12T08:51:25.675Z,0.77
2023-05-12T08:52:34.387Z,0.70
2023-05-12T08:53:38.204Z,0.80
2023-05-12T08:54:48.922Z,0.73
2023-05-12T08:57:09.722Z,0.60
2023-05-12T08:57:23.192Z,0.75
2023-05-12T08:58:34.145Z,0.80
2023-05-12T08:59:44.680Z,0.70
2023-05-12T09:00:47.414Z,0.77
2023-05-12T09:01:51.152Z,0.65
2023-05-12T09:02:54.709Z,0.65
2023-05-12T09:03:57.028Z,1.00
2023-05-12T09:04:58.933Z,0.73
2023-05-12T09:06:01.894Z,0.50
2023-05-12T09:07:06.391Z,0.80
2023-05-12T09:08:10.094Z,0.70
2023-05-12T09:09:14.231Z,1.00
2023-05-12T09:10:33.418Z,0.70
2023-05-12T09:11:36.843Z,0.70
2023-05-12T09:12:39.482Z,0.75
2023-05-12T09:14:08.789Z,0.80
2023-05-12T09:15:14.925Z,0.77
2023-05-12T09:16:23.283Z,0.90
2023-05-12T09:17:25.561Z,0.80
2023-05-12T09:18:44.225Z,0.98
2023-05-12T09:19:46.474Z,0.73
2023-05-12T09:20:48.616Z,0.68
2023-05-12T09:21:50.499Z,0.70
2023-05-12T09:22:52.478Z,0.80
2023-05-12T09:23:57.210Z,1.08
2023-05-12T09:24:59.524Z,0.90
2023-05-12T09:26:01.798Z,0.90
2023-05-12T09:27:04.912Z,0.82
2023-05-12T09:28:07.202Z,0.77
2023-05-12T09:29:10.817Z,0.93
2023-05-12T09:30:14.834Z,0.90
2023-05-12T09:31:17.734Z,1.00
2023-05-12T09:32:35.405Z,0.77
2023-05-12T09:33:37.496Z,1.00
2023-05-12T09:34:41.625Z,1.02
2023-05-12T09:35:46.782Z,0.80
2023-05-12T09:37:02.739Z,0.90
2023-05-12T09:38:08.914Z,1.10
2023-05-12T09:39:11.081Z,1.10
2023-05-12T09:40:14.004Z,0.95
2023-05-12T09:41:23.560Z,1.20
2023-05-12T09:42:29.673Z,0.90
2023-05-12T09:43:31.686Z,0.60
2023-05-12T09:44:34.033Z,0.80
2023-05-12T09:45:39.289Z,1.08
2023-05-12T09:46:41.284Z,1.00
2023-05-12T09:47:44.000Z,0.75
2023-05-12T09:48:49.356Z,1.08
2023-05-12T09:49:52.532Z,0.88
2023-05-12T09:50:54.356Z,0.90
2023-05-12T09:51:57.130Z,0.90
2023-05-12T09:53:02.168Z,0.98
2023-05-12T09:54:06.427Z,0.80
2023-05-12T09:55:13.515Z,0.90
2023-05-12T09:56:18.268Z,1.10
2023-05-12T09:57:23.209Z,1.13
2023-05-12T09:58:27.181Z,0.85
2023-05-12T09:59:32.956Z,0.88
2023-05-12T10:00:55.125Z,0.70
2023-05-12T10:02:05.684Z,0.77
2023-05-12T10:03:13.741Z,0.52
2023-05-12T10:04:15.935Z,0.80
2023-05-12T10:05:21.383Z,0.60
2023-05-12T10:06:30.565Z,0.63
2023-05-12T10:07:33.305Z,0.90
2023-05-12T10:08:44.472Z,0.73
2023-05-12T10:09:48.616Z,0.70
2023-05-12T10:10:52.515Z,0.77
2023-05-12T10:11:56.612Z,1.02
2023-05-12T10:12:59.866Z,1.00
2023-05-12T10:14:02.064Z,0.90
2023-05-12T10:15:04.875Z,0.80
2023-05-12T10:16:07.842Z,0.60
2023-05-12T10:18:13.184Z,0.98
2023-05-12T10:19:16.156Z,0.60
2023-05-12T10:20:18.841Z,0.70
2023-05-12T10:21:21.958Z,0.80
2023-05-12T10:22:25.119Z,0.80
2023-05-12T10:23:28.612Z,0.77
2023-05-12T10:24:30.643Z,1.20
2023-05-12T10:25:34.304Z,1.00
2023-05-12T10:26:37.844Z,0.70
2023-05-12T10:27:41.674Z,1.15
2023-05-12T10:28:44.744Z,0.90
2023-05-12T10:29:48.330Z,1.00
2023-05-12T10:30:51.148Z,1.38
2023-05-12T10:31:53.504Z,0.80
2023-05-12T10:32:57.746Z,0.70
2023-05-12T10:34:01.488Z,0.85
2023-05-12T10:35:10.784Z,1.27
2023-05-12T10:36:19.949Z,1.20
2023-05-12T10:37:23.578Z,1.00
2023-05-12T10:38:25.769Z,0.85
2023-05-12T10:39:33.169Z,1.20
2023-05-12T10:40:35.715Z,1.20
2023-05-12T10:41:37.842Z,1.00
2023-05-12T10:42:43.446Z,0.82
2023-05-12T10:43:49.679Z,0.85
2023-05-12T10:44:53.394Z,0.77
2023-05-12T10:46:08.532Z,0.75
2023-05-12T10:48:16.804Z,0.90
2023-05-12T10:49:20.425Z,1.10
2023-05-12T10:50:28.854Z,1.00
2023-05-12T10:51:37.982Z,0.80
2023-05-12T10:52:41.666Z,0.85
2023-05-12T10:53:50.034Z,0.82
2023-05-12T10:55:01.376Z,0.88
2023-05-12T10:56:06.228Z,1.13
2023-05-12T10:57:17.141Z,0.70
2023-05-12T10:58:20.888Z,1.00
2023-05-12T10:59:25.217Z,0.63
2023-05-12T11:00:29.163Z,0.75
2023-05-12T11:01:31.790Z,0.82
2023-05-12T11:02:36.930Z,0.80
2023-05-12T11:03:41.209Z,0.80
2023-05-12T11:05:00.060Z,0.80
2023-05-12T11:06:06.912Z,0.75
2023-05-12T11:07:12.149Z,0.85
2023-05-12T11:08:17.549Z,0.80
2023-05-12T11:09:21.749Z,0.88
2023-05-12T11:10:24.423Z,0.73
2023-05-12T11:11:29.344Z,1.00
2023-05-12T11:12:33.484Z,0.80
2023-05-12T11:13:36.107Z,0.70
2023-05-12T11:14:39.696Z,0.90
2023-05-12T11:15:44.734Z,0.85
2023-05-12T11:16:47.155Z,0.93
2023-05-12T11:17:49.334Z,0.70
2023-05-12T11:19:06.446Z,0.73
2023-05-12T11:20:12.164Z,1.13
2023-05-12T11:21:14.640Z,0.73
2023-05-12T11:22:20.100Z,0.70
2023-05-12T11:23:32.439Z,0.73
2023-05-12T11:24:35.843Z,1.20
2023-05-12T11:25:37.755Z,1.00
2023-05-12T11:26:41.660Z,0.75
2023-05-12T11:27:53.233Z,1.15
2023-05-12T11:28:57.815Z,0.80
2023-05-12T11:30:01.456Z,0.90
2023-05-12T11:31:03.512Z,0.65
2023-05-12T11:32:06.006Z,0.80
2023-05-12T11:33:08.365Z,0.82
2023-05-12T11:34:13.510Z,1.05
2023-05-12T11:35:18.570Z,0.77
2023-05-12T11:36:23.549Z,0.90
2023-05-12T11:37:25.893Z,0.90
2023-05-12T11:38:29.061Z,0.90
2023-05-12T11:39:32.591Z,1.10
2023-05-12T11:40:40.473Z,1.00
2023-05-12T11:41:43.011Z,1.08
2023-05-12T11:42:49.065Z,0.85
2023-05-12T11:43:51.250Z,1.10
2023-05-12T11:44:54.748Z,1.00
2023-05-12T11:45:57.004Z,1.23
2023-05-12T11:47:10.939Z,1.33
2023-05-12T11:48:14.313Z,0.90
2023-05-12T11:49:16.249Z,1.27
2023-05-12T11:50:23.332Z,1.10
2023-05-12T11:51:26.537Z,0.90
2023-05-12T11:52:28.525Z,0.70
2023-05-12T11:53:30.461Z,1.02
2023-05-12T11:54:32.754Z,0.93
2023-05-12T11:55:34.733Z,1.20
2023-05-12T11:56:36.792Z,1.52
2023-05-12T11:57:39.650Z,1.10
2023-05-12T11:58:56.284Z,0.85
2023-05-12T12:00:00.721Z,0.82
2023-05-12T12:01:12.879Z,0.88
2023-05-12T12:02:21.811Z,1.08
2023-05-12T12:03:25.071Z,1.27
2023-05-12T12:04:41.991Z,1.05
2023-05-12T12:05:45.800Z,0.95
2023-05-12T12:06:48.463Z,1.10
2023-05-12T12:07:50.536Z,1.30
2023-05-12T12:09:02.814Z,1.23
2023-05-12T12:10:17.590Z,1.38
2023-05-12T12:12:23.576Z,1.20
2023-05-12T12:13:26.491Z,1.00
2023-05-12T12:15:31.972Z,1.00
2023-05-12T12:16:33.997Z,1.10
2023-05-12T12:17:36.137Z,0.80
2023-05-12T12:18:38.089Z,1.17
2023-05-12T12:19:40.397Z,0.95
2023-05-12T12:20:43.388Z,1.30
2023-05-12T12:21:45.363Z,0.90
2023-05-12T12:22:47.278Z,0.80
2023-05-12T12:23:51.700Z,1.00
2023-05-12T12:24:54.008Z,0.70
2023-05-12T12:25:55.901Z,0.90
2023-05-12T12:26:57.833Z,0.90
2023-05-12T12:28:00.118Z,0.95
2023-05-12T12:29:02.077Z,1.00
2023-05-12T12:30:04.406Z,1.00
2023-05-12T12:31:06.414Z,0.73
2023-05-12T12:32:09.278Z,1.20
2023-05-12T12:33:11.271Z,1.00
2023-05-12T12:34:13.261Z,0.98
2023-05-12T12:35:15.264Z,0.90
2023-05-12T12:36:18.143Z,1.10
2023-05-12T12:37:20.059Z,0.82
2023-05-12T12:38:22.086Z,0.90
2023-05-12T12:39:24.005Z,0.77
2023-05-12T12:40:26.332Z,0.82
2023-05-12T12:41:28.940Z,0.73
2023-05-12T12:42:31.209Z,0.73
2023-05-12T12:43:33.167Z,0.70
2023-05-12T12:44:35.617Z,0.90
2023-05-12T12:45:37.681Z,0.90
2023-05-12T12:46:39.715Z,0.90
2023-05-12T12:47:41.920Z,0.98
2023-05-12T12:48:44.184Z,0.93
2023-05-12T12:49:46.131Z,0.70
2023-05-12T12:50:48.161Z,0.70
2023-05-12T12:51:50.882Z,0.80
2023-05-12T12:52:53.293Z,0.90
2023-05-12T12:53:55.251Z,0.57
2023-05-12T12:54:57.635Z,0.80
2023-05-12T12:55:59.511Z,0.80
2023-05-12T12:57:01.855Z,0.82
2023-05-12T12:58:03.919Z,0.70
2023-05-12T12:59:06.568Z,0.70
2023-05-12T13:00:10.141Z,1.17
2023-05-12T13:01:12.451Z,0.93
2023-05-12T13:02:14.614Z,1.02
2023-05-12T13:03:18.093Z,0.90
2023-05-12T13:04:23.260Z,1.00
2023-05-12T13:05:25.562Z,1.08
2023-05-12T13:06:27.877Z,1.17
2023-05-12T13:07:30.741Z,1.05
2023-05-12T13:09:36.148Z,1.00
2023-05-12T13:10:39.041Z,0.75
2023-05-12T13:12:43.078Z,1.20
2023-05-12T13:13:45.577Z,1.10
2023-05-12T13:14:47.531Z,1.00
2023-05-12T13:15:49.392Z,1.20
2023-05-12T13:16:53.089Z,0.95
2023-05-12T13:17:55.827Z,1.10
2023-05-12T13:18:57.789Z,1.15
2023-05-12T13:19:59.821Z,1.42
2023-05-12T13:21:02.189Z,1.10
2023-05-12T13:22:04.753Z,1.45
2023-05-12T13:23:06.825Z,1.20
2023-05-12T13:24:08.820Z,1.45
2023-05-12T13:25:11.848Z,1.40
2023-05-12T13:26:14.163Z,1.60
2023-05-12T13:27:16.040Z,1.30
2023-05-12T13:28:18.262Z,1.35
2023-05-12T13:29:20.114Z,1.70
2023-05-12T13:30:25.271Z,1.20
2023-05-12T13:31:27.361Z,1.35
2023-05-12T13:32:29.517Z,1.40
2023-05-12T13:33:31.498Z,1.40
2023-05-12T13:34:33.773Z,1.20
2023-05-12T13:35:35.814Z,1.50
2023-05-12T13:36:38.035Z,1.83
2023-05-12T13:37:40.001Z,1.40
2023-05-12T13:38:42.277Z,1.20
2023-05-12T13:39:44.227Z,1.40
2023-05-12T13:40:46.180Z,1.55
2023-05-12T13:41:48.131Z,1.20
2023-05-12T13:42:50.456Z,1.63
2023-05-12T13:43:52.367Z,1.52
2023-05-12T13:44:54.408Z,1.38
2023-05-12T13:45:57.112Z,1.58
2023-05-12T13:46:59.511Z,1.30
2023-05-12T13:48:01.550Z,1.20
2023-05-12T13:49:03.589Z,1.55
2023-05-12T13:50:07.017Z,1.85
2023-05-12T13:51:09.412Z,1.70
2023-05-12T13:52:11.337Z,1.50
2023-05-12T13:53:13.365Z,1.40
2023-05-12T13:54:15.452Z,1.17
2023-05-12T13:55:21.231Z,1.17
2023-05-12T13:56:24.464Z,1.10
2023-05-12T13:57:26.431Z,1.10
2023-05-12T13:58:28.392Z,1.30
2023-05-12T13:59:31.411Z,1.50
2023-05-12T14:00:33.377Z,1.30
2023-05-12T14:01:36.044Z,1.30
2023-05-12T14:02:38.090Z,1.67
2023-05-12T14:03:42.232Z,1.50
2023-05-12T14:04:44.098Z,1.38
2023-05-12T14:05:46.209Z,1.60
2023-05-12T14:06:48.056Z,1.40
2023-05-12T14:07:50.613Z,1.50
2023-05-12T14:08:52.758Z,1.95
2023-05-12T14:09:54.797Z,1.27
2023-05-12T14:10:57.034Z,1.20
2023-05-12T14:12:00.266Z,1.08
2023-05-12T14:14:04.546Z,0.88
2023-05-12T14:15:21.816Z,1.00
2023-05-12T14:16:29.585Z,0.80